Aérodrome :
LOGIN :

S'inscrire | Disclaimer

   EN    FR    IT 

 










Légende :    VFR   VFR Marginal   IFR   IFR Intensif   IFR Très Intensif
Visi : 
Plafond : 
>= 8 km
>= 3000ft
5 à 8 km
1000 à 3000 ft
1500m à 5 km
500 à 1000 ft
800 à 1500m
200 à 500 ft
< 800m
< 200 ft
Symboles :   Orages  Brouillard  Fortes neiges  Fortes précipitations  Vent > 20 kt
SIGMETs :   Divers  Orages  Givrage  Turbulence  Onde Orograph.  Cendres Volcan.






- Altitude de l'aérodrome : 265 ft
- Code IATA : BJY


LYBT - Batajnica Air Base

DERNIER METAR :
  • 192230Z 35007G17KT 8000 TSRA BKN026 FEW030 07/06 Q1019 NOSIG

METARs EXPIRÉS :
  • 192200Z 01010KT 340V050 8000 -RA BKN026 07/05 Q1018 NOSIG
  • 192130Z 02006KT 9999 SCT030 08/04 Q1018 NOSIG
  • 192100Z 03007KT 9999 SCT033 08/04 Q1018 NOSIG
  • 192030Z 03005KT 9999 SCT040 07/03 Q1018 NOSIG
  • 192000Z 03008KT 9999 SCT043 07/03 Q1017 NOSIG

TAF TAF LYBT
Valide du 19 à 18h jusqu'au 20 à 18h UTC


191700Z 1918/2018 02005KT 9999 SCT040 TX09/2013Z TN04/2005Z
BECMG 1923/2001 32012KT
TEMPO 2004/2008 RA BKN015



MET'MAP, la Météo Aéronautique d'un coup d'oeil ! - Copyright ORBIFLY Décembre 2007 - Disclaimer

ORBIFLY MET'MAP TEAM :

Programmation & Développement : Alexandra Zaïnal
Sur une idée originale de : Baudouin d'Aumeries
Assistance à la programmation : Marc-Olivier Méhu
Soutien technique & logistique : Manuel Goepfert

Contact : metmap@orbifly.com




SOURCES & CREDITS :

   NOAA